No particular awareness of the weather is required.    There are no Weather-warnings


Meteo18 Weather Cam more information Meteo18 Weather Cam


Thunder radar more information blitzortung!


Rain radar more information rain snow radar


Visit our other weather sites:

Template documentation
and downloads

And another site



Weather Underground History page Text

Daily Summary for July 24, 2017 Units:  English    Metric   Both
« Previous Day
Next Day »
Daily Weekly Monthly Yearly Custom
  High: Low: Average:
Temperature: TemperatureC °F 13.6 °F 15.9 °F
Dew Point: DewpointC °F 11.7 °F 13.5 °F
Humidity: Humidity % 71 % 85 %
Wind Speed: WindSpeedKMH mph 0.0 mph 8.7 mph
Wind Gust: WindSpeedGustKMH mph - -
Wind:- - West
Pressure: PressurehPa in 1013.1 in -
Precipitation: 7.1 in    
Historical Graphs
 
 
Tabular Data for July 24, 2017
Time Temperature Dew Point Pressure Wind Wind Speed Wind Gust Humidity Rainfall Rate (Hourly)
TemperatureC °F DewpointC °F PressurehPa in Calm     Humidity % HourlyPrecipMM in
00:02 16.2 °F 15.1 °F 1014.4 in SW 4.8 mph 11.3 mph 93 % 0.8 in
00:12 16.3 °F 15.2 °F 1014.4 in SW 8.0 mph 11.3 mph 93 % 0.8 in
00:17 16.3 °F 15.2 °F 1014.4 in WSW 4.8 mph 16.1 mph 93 % 0.8 in
00:22 16.3 °F 15.2 °F 1014.4 in WSW 4.8 mph 16.1 mph 93 % 0.5 in
00:32 16.3 °F 15.0 °F 1014.4 in SW 12.9 mph 17.7 mph 92 % 0.3 in
00:37 16.3 °F 15.0 °F 1014.4 in WSW 6.4 mph 17.7 mph 92 % 0.3 in
00:42 16.4 °F 15.1 °F 1014.4 in SW 16.1 mph 22.5 mph 92 % 0.0 in
00:52 16.3 °F 15.2 °F 1014.1 in SW 9.7 mph 22.5 mph 93 % 0.3 in
00:57 16.3 °F 15.3 °F 1014.1 in WSW 9.7 mph 19.3 mph 94 % 0.3 in
01:02 16.3 °F 15.3 °F 1013.8 in SW 16.1 mph 19.3 mph 94 % 0.3 in
01:07 16.3 °F 15.3 °F 1013.8 in SW 17.7 mph 22.5 mph 94 % 0.8 in
01:12 16.2 °F 15.2 °F 1013.8 in SSW 12.9 mph 22.5 mph 94 % 0.8 in
01:17 16.2 °F 15.2 °F 1013.8 in SW 14.5 mph 25.7 mph 94 % 2.0 in
01:22 16.2 °F 15.2 °F 1013.8 in SW 11.3 mph 25.7 mph 94 % 2.0 in
01:27 16.2 °F 15.2 °F 1013.4 in WSW 17.7 mph 27.4 mph 94 % 2.3 in
01:32 16.2 °F 15.2 °F 1013.4 in WSW 8.0 mph 27.4 mph 94 % 2.3 in
01:42 16.3 °F 15.3 °F 1013.4 in SW 16.1 mph 27.4 mph 94 % 3.3 in
01:52 16.3 °F 15.3 °F 1013.1 in SW 17.7 mph 29.0 mph 94 % 3.0 in
01:57 16.3 °F 15.3 °F 1013.1 in SW 12.9 mph 29.0 mph 94 % 3.0 in
02:02 16.3 °F 15.3 °F 1013.1 in SW 11.3 mph 29.0 mph 94 % 3.0 in
02:12 16.2 °F 15.4 °F 1013.1 in West 12.9 mph 25.7 mph 95 % 3.0 in
02:22 16.3 °F 15.5 °F 1013.1 in WSW 20.9 mph 32.2 mph 95 % 1.5 in
02:32 16.3 °F 15.5 °F 1013.1 in SW 6.4 mph 30.6 mph 95 % 1.0 in
02:42 15.5 °F 14.4 °F 1013.8 in NNW 4.8 mph 41.8 mph 93 % 1.0 in
02:47 15.3 °F 14.2 °F 1013.8 in North 3.2 mph 41.8 mph 93 % 1.3 in
02:52 15.1 °F 14.0 °F 1013.8 in NNW 3.2 mph 41.8 mph 93 % 1.3 in
02:57 14.9 °F 13.8 °F 1013.8 in WNW 6.4 mph 14.5 mph 93 % 1.0 in
03:02 14.8 °F 13.7 °F 1013.8 in NNW 4.8 mph 14.5 mph 93 % 1.0 in
03:12 14.7 °F 13.6 °F 1013.8 in West 1.6 mph 16.1 mph 93 % 1.0 in
03:17 14.6 °F 13.5 °F 1013.8 in North 1.6 mph 12.9 mph 93 % 0.8 in
03:22 14.6 °F 13.6 °F 1013.8 in Calm   12.9 mph 94 % 0.8 in
03:32 14.5 °F 13.5 °F 1013.8 in Calm   6.4 mph 94 % 1.0 in
03:37 14.4 °F 13.4 °F 1013.8 in Calm   4.8 mph 94 % 0.5 in
03:42 14.4 °F 13.4 °F 1013.8 in Calm   4.8 mph 94 % 0.5 in
03:52 14.4 °F 13.4 °F 1014.1 in NW 3.2 mph 3.2 mph 94 % 0.5 in
03:57 14.4 °F 13.4 °F 1014.4 in West 4.8 mph 4.8 mph 94 % 0.5 in
04:02 14.4 °F 13.4 °F 1014.4 in NW 1.6 mph 3.2 mph 94 % 0.5 in
04:07 14.4 °F 13.4 °F 1014.4 in WNW 3.2 mph 9.7 mph 94 % 0.5 in
04:12 14.3 °F 13.3 °F 1014.4 in WNW 3.2 mph 9.7 mph 94 % 0.5 in
04:17 14.2 °F 13.2 °F 1014.4 in NW 6.4 mph 9.7 mph 94 % 0.5 in
04:22 14.2 °F 13.2 °F 1014.4 in WNW 1.6 mph 9.7 mph 94 % 0.5 in
04:32 14.1 °F 13.1 °F 1014.4 in West 1.6 mph 11.3 mph 94 % 0.5 in
04:37 14.0 °F 13.0 °F 1014.4 in WNW 8.0 mph 9.7 mph 94 % 0.3 in
04:42 14.0 °F 13.0 °F 1014.4 in West 4.8 mph 9.7 mph 94 % 0.3 in
04:47 14.0 °F 13.0 °F 1014.1 in Calm   8.0 mph 94 % 0.3 in
04:52 13.9 °F 12.9 °F 1014.1 in Calm   8.0 mph 94 % 0.3 in
04:57 13.9 °F 12.9 °F 1014.1 in Calm   8.0 mph 94 % 0.3 in
05:02 13.8 °F 12.9 °F 1014.1 in Calm   8.0 mph 94 % 0.3 in
05:12 13.7 °F 12.8 °F 1014.1 in Calm   4.8 mph 94 % 0.3 in
05:22 13.6 °F 12.7 °F 1014.4 in Calm   4.8 mph 94 % 0.0 in
05:32 13.6 °F 12.8 °F 1014.4 in Calm   3.2 mph 95 % 0.0 in
05:42 13.7 °F 12.9 °F 1014.4 in Calm   1.6 mph 95 % 0.0 in
05:47 13.7 °F 12.9 °F 1014.4 in Calm   1.6 mph 95 % 0.0 in
05:57 13.8 °F 13.0 °F 1014.4 in Calm   1.6 mph 95 % 0.0 in
06:02 13.8 °F 13.0 °F 1014.4 in WSW 1.6 mph 1.6 mph 95 % 0.0 in
06:12 13.8 °F 13.0 °F 1014.4 in Calm   1.6 mph 95 % 0.0 in
06:17 13.8 °F 13.0 °F 1014.4 in Calm   1.6 mph 95 % 0.0 in
06:22 13.9 °F 13.1 °F 1014.8 in Calm   1.6 mph 95 % 0.0 in
06:27 13.9 °F 13.1 °F 1014.8 in Calm   1.6 mph 95 % 0.0 in
06:37 14.0 °F 13.2 °F 1014.8 in Calm   1.6 mph 95 % 0.0 in
06:52 14.0 °F 13.2 °F 1014.8 in Calm     95 % 0.5 in
06:57 14.0 °F 13.2 °F 1014.8 in Calm     95 % 0.5 in
07:02 14.0 °F 13.2 °F 1014.8 in Calm     95 % 1.0 in
07:12 14.0 °F 13.2 °F 1014.8 in Calm     95 % 1.0 in
07:22 13.9 °F 13.1 °F 1014.8 in WNW 1.6 mph 3.2 mph 95 % 1.5 in
07:32 13.7 °F 12.9 °F 1015.1 in Calm   14.5 mph 95 % 1.8 in
07:42 13.8 °F 13.2 °F 1015.1 in North 1.6 mph 9.7 mph 96 % 1.8 in
07:52 13.8 °F 13.2 °F 1015.1 in Calm   8.0 mph 96 % 1.8 in
08:02 13.9 °F 13.3 °F 1014.8 in NW 3.2 mph 4.8 mph 96 % 1.5 in
08:07 14.1 °F 13.3 °F 1014.8 in WNW 4.8 mph 6.4 mph 95 % 1.3 in
08:12 14.1 °F 13.3 °F 1014.8 in WNW 8.0 mph 8.0 mph 95 % 1.3 in
08:17 14.2 °F 13.4 °F 1014.8 in WNW 4.8 mph 8.0 mph 95 % 0.5 in
08:22 14.1 °F 13.3 °F 1014.8 in West 1.6 mph 8.0 mph 95 % 0.5 in
08:32 14.5 °F 13.5 °F 1015.1 in NW 3.2 mph 8.0 mph 94 % 0.5 in
08:37 14.5 °F 13.4 °F 1015.1 in West 6.4 mph 9.7 mph 93 % 0.3 in
08:42 14.6 °F 13.5 °F 1015.1 in Calm   9.7 mph 93 % 0.3 in
08:47 14.8 °F 13.5 °F 1015.1 in NNW 1.6 mph 9.7 mph 92 % 0.0 in
08:52 14.9 °F 13.6 °F 1015.1 in North 9.7 mph 9.7 mph 92 % 0.0 in
09:02 15.2 °F 13.6 °F 1015.5 in WNW 8.0 mph 11.3 mph 90 % 0.0 in
09:07 15.1 °F 13.5 °F 1015.5 in Calm   17.7 mph 90 % 0.0 in
09:12 14.9 °F 13.1 °F 1015.5 in WNW 8.0 mph 17.7 mph 89 % 0.0 in
09:17 14.9 °F 12.9 °F 1015.5 in West 4.8 mph 12.9 mph 88 % 0.0 in
09:22 15.2 °F 13.2 °F 1015.5 in NNW 4.8 mph 12.9 mph 88 % 0.0 in
09:32 15.4 °F 13.1 °F 1015.5 in WNW 12.9 mph 12.9 mph 86 % 0.0 in
09:37 15.6 °F 12.9 °F 1015.5 in NW 11.3 mph 16.1 mph 84 % 0.0 in
09:42 15.3 °F 12.6 °F 1015.5 in NW 8.0 mph 16.1 mph 84 % 0.0 in
09:52 15.4 °F 13.1 °F 1015.8 in North 4.8 mph 20.9 mph 86 % 0.0 in
10:02 15.8 °F 13.3 °F 1015.8 in West 6.4 mph 17.7 mph 85 % 0.0 in
10:12 15.5 °F 13.2 °F 1015.8 in WNW 3.2 mph 20.9 mph 86 % 0.0 in
10:17 15.8 °F 13.5 °F 1015.8 in NW 12.9 mph 17.7 mph 86 % 0.0 in
10:22 15.5 °F 12.6 °F 1016.1 in NW 17.7 mph 17.7 mph 83 % 0.0 in
10:32 15.6 °F 12.5 °F 1016.1 in NW 3.2 mph 25.7 mph 82 % 0.0 in
10:37 15.9 °F 13.2 °F 1015.8 in WNW 12.9 mph 20.9 mph 84 % 0.0 in
10:42 16.2 °F 13.1 °F 1015.8 in West 8.0 mph 20.9 mph 82 % 0.0 in
10:52 16.0 °F 12.9 °F 1015.8 in WSW 9.7 mph 16.1 mph 82 % 0.0 in
10:57 15.9 °F 13.0 °F 1015.8 in WSW 9.7 mph 20.9 mph 83 % 0.0 in
11:02 16.1 °F 12.8 °F 1015.8 in WNW 17.7 mph 20.9 mph 81 % 0.0 in
11:12 16.3 °F 12.7 °F 1016.1 in WSW 8.0 mph 19.3 mph 79 % 0.0 in
11:22 16.2 °F 12.9 °F 1016.1 in West 11.3 mph 24.1 mph 81 % 0.0 in
11:32 16.1 °F 12.5 °F 1016.5 in WSW 24.1 mph 24.1 mph 79 % 0.0 in
11:42 15.9 °F 12.3 °F 1016.5 in WNW 8.0 mph 24.1 mph 79 % 0.0 in
11:47 16.1 °F 12.1 °F 1016.5 in West 16.1 mph 25.7 mph 77 % 0.0 in
11:52 16.2 °F 12.2 °F 1016.5 in NNW 6.4 mph 25.7 mph 77 % 0.0 in
12:02 16.3 °F 12.5 °F 1016.5 in WNW 11.3 mph 27.4 mph 78 % 0.0 in
12:07 16.1 °F 12.1 °F 1016.5 in WNW 17.7 mph 27.4 mph 77 % 0.0 in
12:12 15.9 °F 12.3 °F 1016.8 in WNW 19.3 mph 27.4 mph 79 % 0.0 in
12:17 15.6 °F 12.2 °F 1016.8 in West 12.9 mph 24.1 mph 80 % 0.0 in
12:27 14.9 °F 11.7 °F 1016.8 in WSW 9.7 mph 24.1 mph 81 % 0.0 in
12:32 15.0 °F 12.0 °F 1016.8 in West 9.7 mph 24.1 mph 82 % 0.0 in
12:37 15.2 °F 12.0 °F 1016.8 in SW 8.0 mph 24.1 mph 81 % 0.0 in
12:42 15.2 °F 12.0 °F 1016.8 in WNW 8.0 mph 22.5 mph 81 % 0.0 in
12:52 15.3 °F 12.1 °F 1016.8 in West 16.1 mph 22.5 mph 81 % 0.0 in
12:57 15.2 °F 12.0 °F 1016.8 in WNW 6.4 mph 22.5 mph 81 % 0.0 in
13:02 15.4 °F 12.5 °F 1016.8 in WSW 6.4 mph 22.5 mph 83 % 0.0 in
13:12 15.6 °F 12.4 °F 1016.8 in West 8.0 mph 22.5 mph 81 % 0.0 in
13:17 15.7 °F 12.4 °F 1016.8 in West 4.8 mph 19.3 mph 81 % 0.0 in
13:27 16.3 °F 12.7 °F 1016.8 in SW 12.9 mph 20.9 mph 79 % 0.0 in
13:32 16.3 °F 12.5 °F 1016.8 in SSW 8.0 mph 20.9 mph 78 % 0.0 in
13:37 16.4 °F 12.6 °F 1016.8 in WSW 11.3 mph 20.9 mph 78 % 0.0 in
13:57 16.7 °F 12.8 °F 1016.8 in WNW 6.4 mph 20.9 mph 78 % 0.0 in
14:02 16.8 °F 12.7 °F 1016.8 in West 12.9 mph 20.9 mph 77 % 0.0 in
14:07 16.7 °F 12.6 °F 1016.8 in WSW 11.3 mph 20.9 mph 77 % 0.0 in
14:12 16.8 °F 12.9 °F 1016.8 in WSW 9.7 mph 20.9 mph 78 % 0.0 in
14:17 16.6 °F 12.6 °F 1016.8 in West 25.7 mph 25.7 mph 77 % 0.0 in
14:22 16.7 °F 12.8 °F 1016.8 in West 8.0 mph 22.5 mph 78 % 0.0 in
14:32 17.2 °F 12.7 °F 1016.8 in West 6.4 mph 25.7 mph 75 % 0.0 in
14:42 17.6 °F 13.1 °F 1016.5 in West 8.0 mph 20.9 mph 75 % 0.0 in
14:47 17.5 °F 12.8 °F 1016.5 in WSW 14.5 mph 27.4 mph 74 % 0.0 in
14:57 17.7 °F 13.0 °F 1016.5 in West 14.5 mph 25.7 mph 74 % 0.0 in
15:02 17.9 °F 13.0 °F 1016.5 in WNW 11.3 mph 25.7 mph 73 % 0.0 in
15:12 17.9 °F 13.0 °F 1016.5 in West 11.3 mph 27.4 mph 73 % 0.0 in
15:17 17.9 °F 13.0 °F 1016.5 in WSW 9.7 mph 27.4 mph 73 % 0.0 in
15:22 17.9 °F 13.2 °F 1016.5 in West 16.1 mph 27.4 mph 74 % 0.0 in
15:32 18.6 °F 13.2 °F 1016.5 in West 16.1 mph 27.4 mph 71 % 0.0 in
15:42 17.8 °F 12.9 °F 1016.5 in WSW 14.5 mph 27.4 mph 73 % 0.0 in
15:52 17.6 °F 13.1 °F 1016.5 in West 8.0 mph 27.4 mph 75 % 0.0 in
16:02 17.7 °F 12.8 °F 1016.5 in West 12.9 mph 25.7 mph 73 % 0.0 in
16:12 17.7 °F 12.8 °F 1016.8 in West 8.0 mph 25.7 mph 73 % 0.0 in
16:17 17.7 °F 13.0 °F 1016.5 in WNW 19.3 mph 27.4 mph 74 % 0.0 in
16:22 17.5 °F 13.0 °F 1016.8 in WSW 16.1 mph 27.4 mph 75 % 0.0 in
16:32 17.0 °F 13.1 °F 1016.8 in West 9.7 mph 27.4 mph 78 % 0.0 in
16:37 16.9 °F 13.2 °F 1016.8 in WNW 14.5 mph 25.7 mph 79 % 0.0 in
16:42 16.7 °F 13.2 °F 1016.8 in West 9.7 mph 25.7 mph 80 % 0.0 in
16:52 16.6 °F 13.5 °F 1016.8 in West 11.3 mph 20.9 mph 82 % 0.0 in
16:57 16.7 °F 13.4 °F 1016.8 in WSW 11.3 mph 22.5 mph 81 % 0.0 in
17:02 16.8 °F 13.3 °F 1016.8 in West 11.3 mph 22.5 mph 80 % 0.0 in
17:12 17.2 °F 13.5 °F 1016.5 in WSW 8.0 mph 22.5 mph 79 % 0.0 in
17:17 17.4 °F 13.3 °F 1016.5 in West 11.3 mph 25.7 mph 77 % 0.0 in
17:22 17.6 °F 13.5 °F 1016.5 in WSW 20.9 mph 25.7 mph 77 % 0.0 in
17:27 17.7 °F 13.4 °F 1016.5 in West 11.3 mph 25.7 mph 76 % 0.0 in
17:32 17.7 °F 13.4 °F 1016.5 in WNW 22.5 mph 25.7 mph 76 % 0.0 in
17:37 17.7 °F 13.6 °F 1016.5 in West 14.5 mph 27.4 mph 77 % 0.0 in
17:42 17.8 °F 13.5 °F 1016.5 in NW 17.7 mph 27.4 mph 76 % 0.0 in
17:47 17.8 °F 13.5 °F 1016.5 in SW 9.7 mph 27.4 mph 76 % 0.0 in
17:52 17.7 °F 13.6 °F 1016.5 in West 12.9 mph 27.4 mph 77 % 0.0 in
17:57 17.6 °F 13.5 °F 1016.5 in West 6.4 mph 24.1 mph 77 % 0.0 in
18:02 17.7 °F 13.6 °F 1016.5 in West 12.9 mph 24.1 mph 77 % 0.0 in
18:12 17.6 °F 13.7 °F 1016.5 in WSW 17.7 mph 24.1 mph 78 % 0.0 in
18:17 17.7 °F 13.8 °F 1016.5 in WNW 16.1 mph 19.3 mph 78 % 0.0 in
18:22 17.8 °F 13.9 °F 1016.1 in WSW 16.1 mph 19.3 mph 78 % 0.0 in
18:27 17.8 °F 14.1 °F 1016.5 in NW 3.2 mph 19.3 mph 79 % 0.0 in
18:32 17.8 °F 14.1 °F 1016.5 in West 12.9 mph 25.7 mph 79 % 0.0 in
18:42 17.7 °F 14.4 °F 1016.5 in West 9.7 mph 25.7 mph 81 % 0.0 in
18:47 17.6 °F 14.3 °F 1016.5 in WSW 12.9 mph 25.7 mph 81 % 0.0 in
18:57 17.4 °F 14.1 °F 1016.5 in WNW 12.9 mph 25.7 mph 81 % 0.0 in
19:02 17.4 °F 14.3 °F 1016.5 in WNW 1.6 mph 25.7 mph 82 % 0.0 in
19:12 17.5 °F 14.2 °F 1016.5 in WNW 6.4 mph 20.9 mph 81 % 0.0 in
19:17 17.5 °F 14.2 °F 1016.5 in West 9.7 mph 24.1 mph 81 % 0.0 in
19:22 17.6 °F 14.3 °F 1016.5 in WNW 17.7 mph 24.1 mph 81 % 0.0 in
19:27 17.6 °F 14.5 °F 1016.8 in WNW 9.7 mph 27.4 mph 82 % 0.0 in
19:32 17.6 °F 14.5 °F 1016.5 in West 11.3 mph 27.4 mph 82 % 0.0 in
19:42 17.6 °F 14.3 °F 1016.8 in West 8.0 mph 22.5 mph 81 % 0.0 in
19:52 17.7 °F 14.4 °F 1016.8 in WNW 6.4 mph 22.5 mph 81 % 0.0 in
19:57 17.6 °F 14.3 °F 1016.8 in West 11.3 mph 19.3 mph 81 % 0.0 in
20:02 17.3 °F 14.2 °F 1016.8 in WNW 11.3 mph 19.3 mph 82 % 0.0 in
20:12 17.5 °F 14.2 °F 1016.8 in WNW 6.4 mph 25.7 mph 81 % 0.0 in
20:17 17.4 °F 14.1 °F 1016.8 in WNW 9.7 mph 27.4 mph 81 % 0.0 in
20:22 17.3 °F 14.0 °F 1016.8 in WNW 9.7 mph 27.4 mph 81 % 0.0 in
20:32 17.2 °F 14.1 °F 1016.8 in West 6.4 mph 27.4 mph 82 % 0.0 in
20:37 17.2 °F 14.3 °F 1016.8 in WSW 8.0 mph 22.5 mph 83 % 0.0 in
20:42 17.2 °F 14.3 °F 1016.8 in WSW 9.7 mph 22.5 mph 83 % 0.0 in
20:47 17.2 °F 14.3 °F 1016.8 in WSW 9.7 mph 20.9 mph 83 % 0.0 in
20:52 17.1 °F 14.2 °F 1016.8 in WNW 11.3 mph 20.9 mph 83 % 0.0 in
20:57 17.1 °F 14.4 °F 1017.2 in West 12.9 mph 24.1 mph 84 % 0.0 in
21:02 17.1 °F 14.2 °F 1017.2 in NW 8.0 mph 24.1 mph 83 % 0.0 in
21:12 17.0 °F 14.3 °F 1016.8 in West 9.7 mph 24.1 mph 84 % 0.0 in
21:17 17.0 °F 14.3 °F 1016.8 in West 6.4 mph 22.5 mph 84 % 0.0 in
21:22 16.9 °F 14.2 °F 1017.2 in WNW 11.3 mph 22.5 mph 84 % 0.0 in
21:32 16.9 °F 14.2 °F 1017.2 in WNW 14.5 mph 27.4 mph 84 % 0.0 in
21:42 16.9 °F 14.2 °F 1017.2 in WNW 20.9 mph 24.1 mph 84 % 0.0 in
21:47 16.9 °F 14.2 °F 1017.2 in WNW 14.5 mph 27.4 mph 84 % 0.0 in
21:52 16.8 °F 14.1 °F 1017.2 in WSW 6.4 mph 27.4 mph 84 % 0.0 in
21:57 16.8 °F 14.1 °F 1017.5 in WNW 9.7 mph 25.7 mph 84 % 0.0 in
22:07 16.8 °F 14.1 °F 1017.5 in WNW 9.7 mph 25.7 mph 84 % 0.0 in
22:12 16.8 °F 13.9 °F 1017.5 in WNW 9.7 mph 25.7 mph 83 % 0.0 in
22:17 16.9 °F 14.0 °F 1017.5 in West 9.7 mph 32.2 mph 83 % 0.0 in
22:22 16.8 °F 13.7 °F 1017.5 in NW 14.5 mph 32.2 mph 82 % 0.0 in
22:32 16.8 °F 13.7 °F 1017.8 in WSW 14.5 mph 29.0 mph 82 % 0.0 in
22:37 16.7 °F 13.6 °F 1017.8 in WNW 9.7 mph 29.0 mph 82 % 0.0 in
22:42 16.7 °F 13.6 °F 1017.8 in NNW 14.5 mph 29.0 mph 82 % 0.0 in
22:47 16.7 °F 13.6 °F 1017.8 in NNE 14.5 mph 27.4 mph 82 % 0.0 in
22:52 16.7 °F 13.6 °F 1017.8 in WNW 11.3 mph 27.4 mph 82 % 0.0 in
23:02 16.7 °F 13.4 °F 1018.2 in NW 9.7 mph 24.1 mph 81 % 0.0 in
23:12 16.5 °F 13.4 °F 1018.5 in NW 8.0 mph 24.1 mph 82 % 0.0 in
23:17 16.3 °F 13.4 °F 1018.5 in West 6.4 mph 27.4 mph 83 % 0.0 in
23:22 16.1 °F 13.4 °F 1018.5 in North 16.1 mph 27.4 mph 84 % 0.0 in
23:32 15.9 °F 13.4 °F 1018.5 in WNW 6.4 mph 24.1 mph 85 % 0.0 in
23:42 15.9 °F 13.4 °F 1018.2 in WNW 8.0 mph 16.1 mph 85 % 0.0 in
23:47 15.9 °F 13.4 °F 1018.5 in WNW 9.7 mph 14.5 mph 85 % 0.0 in
23:52 16.0 °F 13.5 °F 1018.5 in West 12.9 mph 14.5 mph 85 % 0.0 in
23:57 15.9 °F 13.6 °F 1018.5 in West 16.1 mph 19.3 mph 86 % 0.0 in
Meteo18
Compliments of Weather Underground - 4 mb

Script developed by  Jim McMurry - jmcmurry@mwt.net Adapted for the template by  Wim van der Kuil - Leuven-Template.eu

You find our weather info also at:

European Weather Network

Weather Underground

Equipment we use:

Weather-station
Davis Vue

Weather-program
Meteobridge

Weather-server
Raspberry PI 2 B+

Provider
1 and 1

Davis Vue

Meteobridge

Raspberry PI 2 B+

1 and 1